Time;durP1;ratioP1;P1;durP2;ratioP2;P2;SDS_P1;SDS_P2;PMS_P1;PMS_P2;Temp;Humidity;BMP_temperature;BMP_pressure;BME280_temperature;BME280_humidity;BME280_pressure;Samples;Min_cycle;Max_cycle;Signal;HPM_P1;HPM_P2
2022/05/05 00:01:52;;;;;;;2.42;2.33;;;12.80;99.90;;;;;;5012099;28;20232;-75
2022/05/05 00:04:21;;;;;;;2.35;1.98;;;12.80;99.90;;;;;;5017459;28;20337;-73
2022/05/05 00:06:48;;;;;;;2.53;2.33;;;12.80;99.90;;;;;;5016096;28;20621;-74
2022/05/05 00:09:16;;;;;;;2.50;2.40;;;12.80;99.90;;;;;;5014705;28;20200;-74
2022/05/05 00:14:28;;;;;;;2.88;2.67;;;12.80;99.90;;;;;;5018883;28;20350;-74
2022/05/05 00:16:59;;;;;;;2.60;2.40;;;12.80;99.90;;;;;;5018870;28;20635;-74
2022/05/05 00:19:28;;;;;;;2.28;2.17;;;12.80;99.90;;;;;;5022094;28;20518;-75
2022/05/05 00:21:55;;;;;;;2.67;2.47;;;12.80;99.90;;;;;;5023828;28;20224;-75
2022/05/05 00:24:22;;;;;;;2.63;2.42;;;12.80;99.90;;;;;;5014162;28;20196;-75
2022/05/05 00:26:49;;;;;;;2.78;2.58;;;12.80;99.90;;;;;;5016616;28;20713;-75
2022/05/05 00:29:16;;;;;;;2.70;2.50;;;12.90;99.90;;;;;;5020162;28;20196;-74
2022/05/05 00:31:44;;;;;;;2.13;2.03;;;12.90;99.90;;;;;;5019614;28;20302;-74
2022/05/05 00:34:12;;;;;;;2.40;2.30;;;12.90;99.90;;;;;;5014444;28;20206;-74
2022/05/05 00:36:40;;;;;;;2.13;2.03;;;12.90;99.90;;;;;;5019376;28;20736;-74
2022/05/05 00:39:08;;;;;;;2.75;2.55;;;12.90;99.90;;;;;;5025143;28;20615;-74
2022/05/05 00:41:35;;;;;;;2.25;2.15;;;12.90;99.90;;;;;;5024667;28;20228;-74
2022/05/05 00:44:04;;;;;;;1.92;1.83;;;12.90;99.90;;;;;;5014003;28;20690;-75
2022/05/05 00:46:31;;;;;;;2.28;2.17;;;12.90;99.90;;;;;;5013933;28;20266;-74
2022/05/05 00:48:58;;;;;;;2.58;2.38;;;12.90;99.90;;;;;;5016489;28;20219;-75
2022/05/05 00:51:27;;;;;;;3.08;2.40;;;12.90;99.90;;;;;;5021821;28;20267;-74
2022/05/05 00:53:54;;;;;;;2.38;2.20;;;12.90;99.90;;;;;;5016169;28;20196;-74
2022/05/05 00:56:23;;;;;;;2.60;2.40;;;12.90;99.90;;;;;;5015291;28;20709;-72
2022/05/05 00:58:51;;;;;;;2.60;2.40;;;12.90;99.90;;;;;;5019501;28;20212;-74
2022/05/05 01:01:20;;;;;;;2.22;2.08;;;12.90;99.90;;;;;;5018135;28;20238;-74
2022/05/05 01:03:47;;;;;;;2.53;2.40;;;12.80;99.90;;;;;;5018011;28;20208;-75
2022/05/05 01:06:14;;;;;;;3.28;2.55;;;12.90;99.90;;;;;;5017109;28;20219;-74
2022/05/05 01:08:44;;;;;;;2.60;2.40;;;12.80;99.90;;;;;;5018954;28;20318;-74
2022/05/05 01:11:11;;;;;;;1.95;1.85;;;12.90;99.90;;;;;;5022622;28;20223;-75
2022/05/05 01:13:39;;;;;;;2.20;2.10;;;12.90;99.90;;;;;;5018521;28;20215;-74
2022/05/05 01:16:07;;;;;;;3.00;2.47;;;12.90;99.90;;;;;;5020157;28;20216;-75
2022/05/05 01:18:34;;;;;;;2.72;2.53;;;12.90;99.90;;;;;;5017464;28;20250;-75
2022/05/05 01:21:01;;;;;;;2.78;2.45;;;12.90;99.90;;;;;;5020357;28;20235;-74
2022/05/05 01:23:30;;;;;;;2.63;2.42;;;12.80;99.90;;;;;;5021884;28;20227;-73
2022/05/05 01:28:44;;;;;;;2.33;2.22;;;12.80;99.90;;;;;;5020971;28;20203;-74
2022/05/05 01:31:12;;;;;;;2.25;2.15;;;12.80;99.90;;;;;;5016832;28;20215;-75
2022/05/05 01:33:39;;;;;;;2.50;2.40;;;12.70;99.90;;;;;;5015286;28;20274;-72
2022/05/05 01:36:07;;;;;;;2.38;2.28;;;12.70;99.90;;;;;;5021235;28;20220;-75
2022/05/05 01:38:40;;;;;;;2.72;2.50;;;12.70;99.90;;;;;;5016653;28;20238;-75
2022/05/05 01:41:08;;;;;;;2.60;2.42;;;12.60;99.90;;;;;;5014263;28;20220;-74
2022/05/05 01:43:36;;;;;;;2.80;2.17;;;12.60;99.90;;;;;;5014739;28;20228;-72
2022/05/05 01:46:04;;;;;;;2.63;2.45;;;12.60;99.90;;;;;;5017121;28;20228;-75
2022/05/05 01:48:31;;;;;;;2.72;2.53;;;12.60;99.90;;;;;;5019377;28;20249;-74
2022/05/05 01:50:59;;;;;;;3.13;2.83;;;12.60;99.90;;;;;;5014485;28;20219;-75
2022/05/05 01:53:26;;;;;;;2.70;2.50;;;12.50;99.90;;;;;;5018730;28;20231;-75
2022/05/05 01:55:54;;;;;;;2.78;2.58;;;12.50;99.90;;;;;;5023231;28;20299;-75
2022/05/05 01:58:23;;;;;;;2.50;2.40;;;12.50;99.90;;;;;;5015954;28;20309;-74
2022/05/05 02:00:50;;;;;;;2.25;2.10;;;12.50;99.90;;;;;;5016508;28;20216;-75
2022/05/05 02:03:18;;;;;;;2.08;1.92;;;12.50;99.90;;;;;;5015555;28;20290;-74
2022/05/05 02:05:47;;;;;;;2.75;2.60;;;12.50;99.90;;;;;;5017307;28;20200;-74
2022/05/05 02:08:14;;;;;;;2.67;2.47;;;12.50;99.90;;;;;;5016334;28;20200;-73
2022/05/05 02:10:41;;;;;;;3.20;2.90;;;12.60;99.90;;;;;;5017102;28;20195;-75
2022/05/05 02:13:10;;;;;;;2.33;2.22;;;12.60;99.90;;;;;;5011968;28;20579;-74
2022/05/05 02:15:37;;;;;;;2.47;2.30;;;12.60;99.90;;;;;;5016524;28;20503;-76
2022/05/05 02:18:09;;;;;;;2.85;2.63;;;12.60;99.90;;;;;;5019998;28;20220;-76
2022/05/05 02:20:37;;;;;;;3.47;2.80;;;12.50;99.90;;;;;;5021578;28;20325;-75
2022/05/05 02:23:04;;;;;;;2.65;2.55;;;12.50;99.90;;;;;;5019886;28;20231;-74
2022/05/05 02:25:31;;;;;;;4.15;3.50;;;12.40;99.90;;;;;;5016566;28;20207;-75
2022/05/05 02:27:58;;;;;;;2.38;2.28;;;12.30;99.90;;;;;;5021388;28;20222;-75
2022/05/05 02:30:28;;;;;;;2.70;2.50;;;12.30;99.90;;;;;;5025364;28;20216;-75
2022/05/05 02:32:55;;;;;;;2.50;2.30;;;12.30;99.90;;;;;;5020812;28;20302;-74
2022/05/05 02:35:23;;;;;;;3.10;2.90;;;12.30;99.90;;;;;;5020163;28;20196;-75
2022/05/05 02:40:34;;;;;;;3.33;3.03;;;12.20;99.90;;;;;;5020130;28;20754;-76
2022/05/05 02:43:02;;;;;;;2.70;2.50;;;12.10;99.90;;;;;;5020663;28;20703;-75
2022/05/05 02:45:30;;;;;;;3.03;2.80;;;12.10;99.90;;;;;;5017491;28;20670;-75
2022/05/05 02:47:58;;;;;;;2.60;2.50;;;12.10;99.90;;;;;;5017955;28;20233;-74
2022/05/05 02:50:25;;;;;;;2.92;2.72;;;12.10;99.90;;;;;;5016887;28;20199;-75
2022/05/05 02:52:54;;;;;;;3.05;2.85;;;12.10;99.90;;;;;;5021853;28;20236;-74
2022/05/05 02:55:20;;;;;;;2.50;2.30;;;12.10;99.90;;;;;;5020928;28;20208;-74
2022/05/05 02:57:47;;;;;;;2.60;2.40;;;12.00;99.90;;;;;;5015810;28;20298;-74
2022/05/05 03:00:15;;;;;;;2.30;2.20;;;12.00;99.90;;;;;;5018831;28;20208;-76
2022/05/05 03:02:44;;;;;;;2.78;2.58;;;12.00;99.90;;;;;;5015263;28;20220;-75
2022/05/05 03:05:13;;;;;;;2.30;2.20;;;12.00;99.90;;;;;;5016607;28;20249;-74
2022/05/05 03:07:41;;;;;;;2.78;2.58;;;12.00;99.90;;;;;;5019619;28;20249;-75
2022/05/05 03:10:09;;;;;;;2.85;2.65;;;12.00;99.90;;;;;;5015559;28;20279;-75
2022/05/05 03:12:36;;;;;;;3.10;2.80;;;12.00;99.90;;;;;;5020979;28;20223;-74
2022/05/05 03:15:03;;;;;;;2.78;2.58;;;12.00;99.90;;;;;;5017494;28;20193;-75
2022/05/05 03:17:31;;;;;;;2.78;2.40;;;11.90;99.90;;;;;;5012435;28;20310;-75
2022/05/05 03:19:59;;;;;;;2.90;2.70;;;11.90;99.90;;;;;;5013511;28;20207;-75
2022/05/05 03:22:26;;;;;;;2.75;2.60;;;11.90;99.90;;;;;;5021447;28;20223;-74
2022/05/05 03:24:54;;;;;;;2.65;2.40;;;11.90;99.90;;;;;;5020135;28;20199;-75
2022/05/05 03:27:21;;;;;;;2.85;2.65;;;11.90;99.90;;;;;;5019885;28;20223;-75
2022/05/05 03:29:48;;;;;;;3.20;3.00;;;11.90;99.90;;;;;;5019602;28;20192;-75
2022/05/05 03:32:15;;;;;;;2.70;2.60;;;11.90;99.90;;;;;;5013807;28;20227;-75
2022/05/05 03:34:42;;;;;;;2.88;2.67;;;11.90;99.90;;;;;;5016788;28;20326;-74
2022/05/05 03:37:10;;;;;;;2.30;2.20;;;11.90;99.90;;;;;;5019230;28;20219;-74
2022/05/05 03:39:38;;;;;;;3.05;2.85;;;11.80;99.90;;;;;;5022807;28;20546;-73
2022/05/05 03:42:06;;;;;;;2.97;2.78;;;11.90;99.90;;;;;;5019609;28;20647;-74
2022/05/05 03:44:33;;;;;;;2.63;2.42;;;11.80;99.90;;;;;;5019113;28;20212;-74
2022/05/05 03:47:00;;;;;;;3.08;2.88;;;11.80;99.90;;;;;;5021471;28;20783;-75
2022/05/05 03:49:27;;;;;;;2.50;2.30;;;11.80;99.90;;;;;;5024352;28;20205;-75
2022/05/05 03:51:55;;;;;;;2.83;2.63;;;11.80;99.90;;;;;;5017088;28;20263;-75
2022/05/05 03:54:24;;;;;;;2.33;2.22;;;11.80;99.90;;;;;;5019906;28;20196;-74
2022/05/05 03:56:51;;;;;;;2.40;2.28;;;11.80;99.90;;;;;;5018568;28;20632;-75
2022/05/05 03:59:18;;;;;;;2.75;2.58;;;11.80;99.90;;;;;;5016421;28;20692;-74
2022/05/05 04:01:45;;;;;;;3.10;2.80;;;11.80;99.90;;;;;;5017371;28;20223;-74
2022/05/05 04:04:12;;;;;;;2.63;2.53;;;11.80;99.90;;;;;;5020227;28;20634;-75
2022/05/05 04:06:39;;;;;;;3.45;3.00;;;11.90;99.90;;;;;;5013717;28;20285;-75
2022/05/05 04:09:06;;;;;;;3.03;2.83;;;11.90;99.90;;;;;;5024023;28;20673;-74
2022/05/05 04:11:35;;;;;;;2.80;2.60;;;11.90;99.90;;;;;;5017316;28;20227;-74
2022/05/05 04:14:03;;;;;;;2.55;2.35;;;11.90;99.90;;;;;;5018753;28;20198;-73
2022/05/05 04:16:31;;;;;;;2.65;2.45;;;11.90;99.90;;;;;;5020026;28;20223;-75
2022/05/05 04:18:58;;;;;;;2.70;2.50;;;12.00;99.90;;;;;;5018843;28;20261;-75
2022/05/05 04:21:25;;;;;;;2.92;2.72;;;12.00;99.90;;;;;;5012992;28;20216;-76
2022/05/05 04:23:52;;;;;;;3.95;3.22;;;12.00;99.90;;;;;;5013215;28;20212;-76
2022/05/05 04:26:20;;;;;;;3.30;3.00;;;12.00;99.90;;;;;;5012840;28;20262;-75
2022/05/05 04:28:50;;;;;;;3.88;3.58;;;12.00;99.90;;;;;;5014821;28;20278;-76
2022/05/05 04:31:18;;;;;;;3.90;3.50;;;12.00;99.90;;;;;;5014095;28;20462;-76
2022/05/05 04:33:46;;;;;;;3.40;3.20;;;12.00;99.90;;;;;;5010772;28;20200;-76
2022/05/05 04:36:14;;;;;;;3.22;3.03;;;12.10;99.90;;;;;;5020247;28;20196;-74
2022/05/05 04:38:41;;;;;;;3.15;2.88;;;12.10;99.90;;;;;;5015216;28;20255;-76
2022/05/05 04:41:08;;;;;;;3.03;2.83;;;12.30;99.90;;;;;;5015872;28;20200;-75
2022/05/05 04:43:35;;;;;;;3.30;3.00;;;12.40;99.90;;;;;;5011182;28;20239;-75
2022/05/05 04:46:04;;;;;;;3.10;2.90;;;12.50;99.90;;;;;;5016754;28;20205;-75
2022/05/05 04:48:31;;;;;;;3.72;3.28;;;12.60;99.90;;;;;;5018261;28;20725;-77
2022/05/05 04:50:58;;;;;;;3.90;3.10;;;12.80;99.90;;;;;;5014995;28;20654;-76
2022/05/05 04:53:25;;;;;;;3.60;3.30;;;12.90;99.90;;;;;;5062856;22;20235;-81
2022/05/05 04:55:53;;;;;;;3.17;2.97;;;13.00;99.90;;;;;;5051966;28;20195;-83
2022/05/05 04:58:20;;;;;;;3.25;3.05;;;13.20;99.90;;;;;;5052235;28;20222;-76
2022/05/05 05:00:47;;;;;;;3.28;3.08;;;13.30;99.90;;;;;;5048221;28;20613;-77
2022/05/05 05:05:56;;;;;;;3.47;3.17;;;13.40;99.90;;;;;;5048381;28;20270;-86
2022/05/05 05:08:23;;;;;;;3.50;3.30;;;13.40;99.90;;;;;;5053920;28;20226;-87
2022/05/05 05:10:50;;;;;;;3.85;3.55;;;13.40;99.90;;;;;;5050893;28;20222;-83
2022/05/05 05:13:17;;;;;;;3.33;3.10;;;13.50;99.90;;;;;;5051222;28;20235;-80
2022/05/05 05:15:45;;;;;;;3.25;3.05;;;13.50;99.90;;;;;;5068301;28;20186;-89
2022/05/05 05:18:14;;;;;;;3.03;2.83;;;13.70;99.90;;;;;;5062635;28;20639;-78
2022/05/05 05:20:42;;;;;;;3.05;2.75;;;13.90;99.90;;;;;;5067926;28;20195;-88
2022/05/05 05:23:09;;;;;;;3.45;3.05;;;14.10;99.90;;;;;;5048202;28;20222;-78
2022/05/05 05:25:36;;;;;;;3.28;2.92;;;14.20;99.90;;;;;;5055118;28;20623;-85
2022/05/05 05:28:04;;;;;;;3.13;2.92;;;14.20;99.90;;;;;;5057058;28;20222;-78
2022/05/05 05:30:31;;;;;;;3.13;2.92;;;14.30;99.90;;;;;;5055887;28;20396;-81
2022/05/05 05:32:58;;;;;;;3.30;3.00;;;14.30;99.90;;;;;;5051912;28;20219;-83
2022/05/05 05:35:27;;;;;;;3.92;3.63;;;14.20;99.90;;;;;;5055561;28;20210;-83
2022/05/05 05:37:54;;;;;;;4.10;3.70;;;14.20;99.90;;;;;;5058259;28;20227;-81
2022/05/05 05:40:21;;;;;;;4.85;3.40;;;14.10;99.90;;;;;;5045488;28;20196;-82
2022/05/05 05:42:48;;;;;;;4.07;3.65;;;14.20;99.90;;;;;;5047426;28;20235;-78
2022/05/05 05:45:15;;;;;;;5.90;2.88;;;14.30;99.90;;;;;;5048926;28;20203;-82
2022/05/05 05:47:42;;;;;;;3.97;3.50;;;14.50;99.90;;;;;;5046867;28;20720;-78
2022/05/05 05:50:10;;;;;;;3.50;3.20;;;14.70;99.90;;;;;;5049836;28;20195;-81
2022/05/05 05:52:38;;;;;;;3.88;3.50;;;14.80;99.90;;;;;;5048095;28;20223;-79
2022/05/05 05:55:06;;;;;;;3.72;3.40;;;14.90;99.90;;;;;;5052901;28;20618;-77
2022/05/05 05:57:34;;;;;;;3.83;3.53;;;15.00;99.90;;;;;;5048248;28;20230;-79
2022/05/05 06:00:01;;;;;;;4.03;3.72;;;15.00;99.90;;;;;;5056343;28;20198;-86
2022/05/05 06:05:13;;;;;;;4.28;3.97;;;14.90;99.90;;;;;;5053406;28;20447;-85
2022/05/05 06:07:41;;;;;;;4.13;3.83;;;15.00;99.90;;;;;;5053394;28;20272;-82
2022/05/05 06:10:09;;;;;;;4.32;3.92;;;15.00;99.90;;;;;;5055403;28;20192;-84
2022/05/05 06:12:36;;;;;;;3.97;3.67;;;15.00;99.90;;;;;;5058363;28;20214;-81
2022/05/05 06:15:04;;;;;;;4.10;3.70;;;15.20;99.90;;;;;;5054778;28;20195;-84
2022/05/05 06:17:32;;;;;;;4.45;4.03;;;15.20;99.90;;;;;;5051675;28;20277;-81
2022/05/05 06:19:59;;;;;;;4.60;4.15;;;15.10;99.90;;;;;;5060510;28;20273;-82
2022/05/05 06:22:26;;;;;;;4.35;3.95;;;14.90;99.90;;;;;;5060231;28;20229;-85
2022/05/05 06:24:54;;;;;;;4.60;4.20;;;14.90;99.90;;;;;;5058211;28;21578;-84
2022/05/05 06:27:21;;;;;;;4.13;3.83;;;15.10;99.90;;;;;;5053505;28;20215;-84
2022/05/05 06:29:48;;;;;;;3.90;3.60;;;15.20;99.90;;;;;;5053588;28;20199;-80
2022/05/05 06:32:17;;;;;;;4.65;3.58;;;15.40;99.90;;;;;;5058924;28;20582;-83
2022/05/05 06:34:44;;;;;;;3.95;3.65;;;15.70;99.90;;;;;;5051017;28;20229;-85
2022/05/05 06:37:11;;;;;;;4.00;3.70;;;15.80;99.90;;;;;;5051906;28;20744;-82
2022/05/05 06:39:38;;;;;;;3.60;3.40;;;16.10;99.90;;;;;;5052895;28;20195;-81
2022/05/05 06:42:08;;;;;;;3.42;3.13;;;16.50;99.90;;;;;;5053999;28;20234;-85
2022/05/05 06:44:35;;;;;;;3.85;3.55;;;16.90;99.90;;;;;;5053997;28;20227;-86
2022/05/05 06:47:03;;;;;;;4.35;4.00;;;17.20;99.90;;;;;;5048751;28;20277;-83
2022/05/05 06:49:31;;;;;;;4.15;3.22;;;17.40;99.90;;;;;;5037003;28;20286;-78
2022/05/05 06:51:59;;;;;;;4.03;3.63;;;17.40;99.90;;;;;;5040691;28;20277;-82
2022/05/05 06:54:26;;;;;;;4.40;3.35;;;17.40;99.90;;;;;;5036627;28;20223;-80
2022/05/05 06:56:53;;;;;;;3.28;3.08;;;17.40;99.90;;;;;;5036916;28;20278;-79
2022/05/05 06:59:22;;;;;;;3.67;3.38;;;17.30;99.90;;;;;;5040467;28;20194;-79
2022/05/05 07:01:56;;;;;;;4.07;3.67;;;17.40;99.90;;;;;;5036979;28;20199;-82
2022/05/05 07:07:11;;;;;;;3.72;3.42;;;17.40;99.90;;;;;;5037758;28;20457;-79
2022/05/05 07:12:38;;;;;;;4.00;3.70;;;17.60;99.90;;;;;;5013934;28;20234;-76
2022/05/05 07:15:08;;;;;;;3.97;3.67;;;17.70;99.90;;;;;;5016064;28;20192;-79
2022/05/05 07:17:35;;;;;;;3.55;3.25;;;17.70;99.90;;;;;;5023850;28;20215;-80
2022/05/05 07:20:03;;;;;;;4.55;4.18;;;17.60;99.90;;;;;;5039777;28;20199;-80
2022/05/05 07:22:30;;;;;;;4.40;4.07;;;17.60;99.90;;;;;;5038166;28;20261;-78
2022/05/05 07:24:57;;;;;;;4.82;4.05;;;17.60;99.90;;;;;;5033769;28;20207;-77
2022/05/05 07:27:24;;;;;;;4.20;3.90;;;17.60;99.90;;;;;;5037595;28;20564;-83
2022/05/05 07:29:51;;;;;;;4.78;4.38;;;17.40;99.90;;;;;;5037110;28;20206;-79
2022/05/05 07:32:19;;;;;;;5.13;4.65;;;17.50;99.90;;;;;;5041279;28;20721;-83
2022/05/05 07:34:47;;;;;;;4.20;3.75;;;17.80;99.90;;;;;;5040714;28;20238;-79
2022/05/05 07:37:14;;;;;;;5.72;3.80;;;18.20;99.90;;;;;;5038358;28;20230;-81
2022/05/05 07:39:41;;;;;;;4.40;4.00;;;18.30;99.90;;;;;;5043207;28;20203;-85
2022/05/05 07:42:09;;;;;;;3.72;3.42;;;18.10;99.90;;;;;;5040827;28;20198;-80
2022/05/05 07:44:36;;;;;;;5.32;3.55;;;18.30;99.90;;;;;;5045890;28;20245;-81
2022/05/05 07:47:03;;;;;;;4.28;3.97;;;18.50;99.90;;;;;;5035473;28;20278;-80
2022/05/05 07:49:32;;;;;;;4.07;3.78;;;18.70;99.90;;;;;;5045651;28;20248;-80
2022/05/05 07:51:59;;;;;;;4.75;4.35;;;18.60;99.90;;;;;;5042210;28;20196;-81
2022/05/05 07:54:43;;;;;;;4.07;3.70;;;18.40;99.90;;;;;;5039425;28;20226;-86
2022/05/05 07:57:13;;;;;;;4.47;4.07;;;18.20;99.90;;;;;;5042909;28;20203;-85
2022/05/05 07:59:44;;;;;;;4.10;3.80;;;17.90;99.90;;;;;;5040100;28;20829;-83
2022/05/05 08:02:13;;;;;;;4.18;3.50;;;17.60;99.90;;;;;;5038173;28;20222;-85
2022/05/05 08:04:43;;;;;;;3.95;3.40;;;17.40;99.90;;;;;;5039784;28;20608;-82
2022/05/05 08:07:10;;;;;;;3.80;3.20;;;17.40;99.90;;;;;;5037754;28;20195;-86
2022/05/05 08:09:37;;;;;;;3.92;3.63;;;17.50;99.90;;;;;;5040708;28;20578;-84
2022/05/05 08:12:05;;;;;;;2.90;2.70;;;17.70;99.90;;;;;;5042820;28;20195;-82
2022/05/05 08:14:33;;;;;;;3.90;3.63;;;18.00;99.90;;;;;;5039118;28;20310;-79
2022/05/05 08:17:00;;;;;;;4.20;3.80;;;18.20;99.90;;;;;;5041970;28;20516;-80
2022/05/05 08:19:27;;;;;;;4.07;3.67;;;18.40;99.90;;;;;;5047754;28;20218;-80
2022/05/05 08:21:56;;;;;;;3.50;3.20;;;19.10;99.90;;;;;;5050737;28;20266;-80
2022/05/05 08:29:52;;;;;;;3.47;3.17;;;20.10;99.90;;;;;;5046042;28;20779;-79
2022/05/05 08:32:19;;;;;;;4.03;3.63;;;19.90;99.90;;;;;;5052122;28;20194;-79
2022/05/05 08:34:47;;;;;;;4.00;3.70;;;19.40;99.90;;;;;;5048021;28;20268;-78
2022/05/05 08:37:15;;;;;;;3.72;3.33;;;19.30;99.90;;;;;;5050821;28;20195;-78
2022/05/05 08:39:44;;;;;;;3.70;3.40;;;19.40;99.90;;;;;;5038832;28;20210;-79
2022/05/05 08:42:12;;;;;;;3.85;3.47;;;19.40;99.90;;;;;;5051681;28;20179;-79
2022/05/05 08:44:39;;;;;;;4.38;3.97;;;19.50;99.90;;;;;;5045440;28;20246;-79
2022/05/05 08:47:09;;;;;;;3.78;3.47;;;19.40;99.90;;;;;;5041303;28;20665;-78
2022/05/05 08:49:36;;;;;;;3.60;3.35;;;19.50;99.90;;;;;;5040177;28;20220;-79
2022/05/05 08:52:08;;;;;;;3.67;3.33;;;19.60;99.90;;;;;;5040892;28;20749;-80
2022/05/05 08:54:39;;;;;;;3.45;3.10;;;19.90;99.90;;;;;;5048541;28;20535;-79
2022/05/05 08:57:07;;;;;;;4.28;3.90;;;20.00;99.90;;;;;;5051376;28;20194;-79
2022/05/05 09:02:20;;;;;;;3.83;3.45;;;19.90;99.90;;;;;;5047933;28;20348;-79
2022/05/05 09:04:49;;;;;;;3.78;3.53;;;19.80;99.90;;;;;;5035132;28;20215;-78
2022/05/05 09:07:16;;;;;;;3.78;3.45;;;19.80;99.90;;;;;;5044229;28;20202;-80
2022/05/05 09:09:49;;;;;;;3.75;3.45;;;19.60;99.90;;;;;;5046545;28;20196;-78
2022/05/05 09:12:17;;;;;;;3.80;3.50;;;19.50;99.90;;;;;;5045398;28;20677;-78
2022/05/05 09:14:46;;;;;;;3.17;2.90;;;19.40;99.90;;;;;;5048523;28;20219;-78
2022/05/05 09:17:14;;;;;;;3.30;3.00;;;19.30;99.90;;;;;;5043783;28;20199;-77
2022/05/05 09:19:45;;;;;;;4.05;3.72;;;19.10;99.90;;;;;;5049442;28;20214;-79
2022/05/05 09:22:13;;;;;;;4.22;3.65;;;18.90;99.90;;;;;;5042235;28;20206;-78
2022/05/05 09:24:43;;;;;;;4.07;3.75;;;18.90;99.90;;;;;;5044792;28;20260;-79
2022/05/05 09:27:24;;;;;;;3.67;3.30;;;18.90;99.90;;;;;;5044819;28;20223;-76
2022/05/05 09:30:15;;;;;;;3.42;3.13;;;19.00;99.90;;;;;;5043983;28;20223;-78
2022/05/05 09:32:44;;;;;;;3.78;3.47;;;19.20;99.90;;;;;;5046247;28;20204;-79
2022/05/05 09:37:56;;;;;;;3.60;3.13;;;19.30;99.90;;;;;;5046405;28;20223;-78
2022/05/05 09:40:24;;;;;;;4.18;3.78;;;19.20;99.90;;;;;;5039631;28;20198;-79
2022/05/05 09:42:55;;;;;;;3.20;3.00;;;19.20;99.90;;;;;;5044616;28;20231;-78
2022/05/05 09:45:23;;;;;;;3.08;2.88;;;19.30;99.90;;;;;;5038346;28;20731;-79
2022/05/05 09:47:52;;;;;;;3.47;3.17;;;19.40;99.90;;;;;;5036562;28;20231;-78
2022/05/05 09:50:21;;;;;;;4.10;3.70;;;19.50;99.90;;;;;;5041695;28;20278;-78
2022/05/05 09:58:22;;;;;;;3.28;3.00;;;19.40;99.90;;;;;;5043717;28;20246;-78
2022/05/05 10:00:58;;;;;;;4.28;3.55;;;19.50;99.90;;;;;;5052645;28;20255;-78
2022/05/05 10:06:19;;;;;;;3.88;3.58;;;19.50;99.90;;;;;;5052806;28;20193;-77
2022/05/05 10:08:50;;;;;;;4.07;3.67;;;19.40;99.90;;;;;;5036239;28;20246;-78
2022/05/05 10:11:19;;;;;;;3.55;3.25;;;19.30;99.90;;;;;;5041515;28;20199;-78
2022/05/05 10:13:49;;;;;;;3.22;2.92;;;19.30;99.90;;;;;;5042055;28;20222;-80
2022/05/05 10:16:16;;;;;;;3.42;3.22;;;19.50;99.90;;;;;;5046886;28;20313;-78
2022/05/05 10:18:44;;;;;;;3.60;3.30;;;19.50;99.90;;;;;;5045945;28;20211;-77
2022/05/05 10:21:20;;;;;;;3.58;3.30;;;19.60;99.90;;;;;;5044305;28;20206;-79
2022/05/05 10:23:57;;;;;;;3.78;3.45;;;19.70;99.90;;;;;;5045006;28;20639;-79
2022/05/05 10:26:25;;;;;;;3.00;2.80;;;19.80;99.90;;;;;;5049528;28;20240;-79
2022/05/05 10:28:53;;;;;;;3.47;3.20;;;19.90;99.90;;;;;;5059185;28;20199;-79
2022/05/05 10:31:47;;;;;;;3.65;3.15;;;20.00;99.90;;;;;;5041289;28;20203;-75
2022/05/05 10:34:19;;;;;;;3.67;2.95;;;20.00;99.90;;;;;;5009955;28;20261;-75
2022/05/05 10:37:00;;;;;;;3.28;3.08;;;19.90;99.90;;;;;;5035747;28;20199;-74
2022/05/05 10:39:50;;;;;;;3.42;3.10;;;19.70;99.90;;;;;;5035606;28;20218;-74
2022/05/05 10:42:24;;;;;;;3.35;3.15;;;19.70;99.90;;;;;;5035143;28;20199;-74
2022/05/05 10:45:12;;;;;;;3.28;2.97;;;19.60;99.90;;;;;;5031943;28;20215;-75
2022/05/05 10:48:17;;;;;;;4.75;3.05;;;19.80;99.90;;;;;;5037858;28;20210;-76
2022/05/05 10:50:52;;;;;;;3.45;3.00;;;19.70;99.90;;;;;;5037299;28;20203;-76
2022/05/05 10:56:04;;;;;;;3.05;2.80;;;19.60;99.90;;;;;;5340014;22;20595;-76
2022/05/05 10:58:57;;;;;;;3.20;3.00;;;19.50;99.90;;;;;;5072852;28;20222;-74
2022/05/05 11:01:26;;;;;;;4.07;3.78;;;19.50;99.90;;;;;;5061134;28;20198;-74
2022/05/05 11:04:25;;;;;;;3.20;3.00;;;19.40;99.90;;;;;;5059318;28;20219;-77
2022/05/05 11:07:25;;;;;;;3.67;3.38;;;19.40;99.90;;;;;;5038272;28;20198;-77
2022/05/05 11:09:52;;;;;;;3.55;3.25;;;19.50;99.90;;;;;;5030282;28;20221;-77
2022/05/05 11:12:20;;;;;;;3.80;3.40;;;19.70;99.90;;;;;;5032383;28;20685;-77
2022/05/05 11:23:40;;;;;;;3.88;3.58;;;19.90;99.90;;;;;;5033544;28;20938;-75
2022/05/05 11:26:09;;;;;;;3.47;3.17;;;19.80;99.90;;;;;;5035725;28;20305;-76
2022/05/05 11:28:36;;;;;;;4.35;3.60;;;19.60;99.90;;;;;;5041139;28;20653;-74
2022/05/05 11:31:04;;;;;;;3.72;3.42;;;19.70;99.90;;;;;;5044134;28;20284;-75
2022/05/05 11:33:32;;;;;;;3.20;3.00;;;19.80;99.90;;;;;;5046064;28;20573;-75
2022/05/05 11:36:02;;;;;;;3.13;2.83;;;20.00;99.90;;;;;;5042679;28;20622;-77
2022/05/05 11:38:30;;;;;;;3.25;3.05;;;19.90;99.90;;;;;;5041136;28;20583;-75
2022/05/05 11:41:03;;;;;;;3.47;3.22;;;19.90;99.90;;;;;;5041328;28;20518;-76
2022/05/05 11:46:16;;;;;;;3.58;3.28;;;19.80;99.90;;;;;;5037837;28;20381;-76
2022/05/05 11:48:52;;;;;;;3.20;3.00;;;19.90;99.90;;;;;;5043053;28;20209;-74
2022/05/05 11:51:22;;;;;;;4.82;3.05;;;19.80;99.90;;;;;;5042134;28;20670;-75
2022/05/05 11:53:49;;;;;;;3.20;2.90;;;19.90;99.90;;;;;;5041924;28;20297;-77
2022/05/05 11:56:17;;;;;;;3.03;2.80;;;20.00;99.90;;;;;;5043998;28;20277;-77
2022/05/05 12:01:45;;;;;;;3.05;2.85;;;20.50;99.90;;;;;;5044752;28;20225;-78
2022/05/05 12:04:14;;;;;;;4.68;3.30;;;20.60;99.90;;;;;;5044145;28;20272;-77
2022/05/05 12:06:42;;;;;;;2.92;2.72;;;20.70;99.90;;;;;;5045970;28;20222;-77
2022/05/05 12:09:09;;;;;;;4.47;2.95;;;20.80;99.90;;;;;;5041895;28;20257;-77
2022/05/05 12:11:38;;;;;;;3.42;2.95;;;20.70;99.90;;;;;;5035312;28;20222;-75
2022/05/05 12:14:07;;;;;;;3.40;2.90;;;20.70;99.90;;;;;;5031382;28;20207;-76
2022/05/05 12:16:36;;;;;;;2.95;2.72;;;20.70;99.90;;;;;;5042012;28;20298;-76
2022/05/05 12:19:11;;;;;;;3.22;3.03;;;20.90;99.90;;;;;;5040127;28;20249;-76
2022/05/05 12:21:52;;;;;;;2.67;2.47;;;21.10;99.90;;;;;;5037023;28;20234;-76
2022/05/05 12:24:20;;;;;;;2.58;2.38;;;21.10;99.90;;;;;;5036139;28;20313;-75
2022/05/05 12:26:47;;;;;;;2.85;2.63;;;21.10;99.90;;;;;;5037829;28;20310;-75
2022/05/05 12:29:15;;;;;;;3.83;3.15;;;21.20;99.90;;;;;;5035504;28;20195;-76
2022/05/05 12:31:55;;;;;;;3.05;2.80;;;21.00;99.90;;;;;;5039041;28;20615;-77
2022/05/05 12:34:25;;;;;;;2.72;2.53;;;20.90;99.90;;;;;;5034645;28;20219;-76
2022/05/05 12:50:31;;;;;;;3.45;3.15;;;20.80;99.90;;;;;;5101023;27;20647;-75
2022/05/05 13:01:26;;;;;;;4.90;3.97;;;20.60;99.90;;;;;;5025578;28;20199;-75
2022/05/05 13:03:54;;;;;;;5.88;4.63;;;20.50;99.90;;;;;;5076237;27;20225;-74
2022/05/05 13:06:23;;;;;;;4.70;4.30;;;20.40;99.90;;;;;;5092055;28;20276;-75
2022/05/05 13:08:50;;;;;;;4.45;4.05;;;20.20;99.90;;;;;;5090113;28;20228;-75
2022/05/05 13:11:18;;;;;;;3.28;3.08;;;20.10;99.90;;;;;;5094372;28;20621;-75
2022/05/05 13:13:45;;;;;;;3.25;2.95;;;20.20;99.90;;;;;;5096594;28;20315;-73
2022/05/05 13:16:12;;;;;;;3.72;3.47;;;20.30;99.90;;;;;;5095587;28;20193;-76
2022/05/05 13:18:39;;;;;;;3.38;3.05;;;20.40;99.90;;;;;;5092425;28;20209;-76
2022/05/05 13:21:06;;;;;;;5.18;3.60;;;20.20;99.90;;;;;;5095033;28;20247;-75
2022/05/05 13:23:35;;;;;;;3.70;3.35;;;20.00;99.90;;;;;;5094796;27;20208;-75
2022/05/05 13:26:03;;;;;;;3.63;3.28;;;19.90;99.90;;;;;;5093778;28;20728;-75
2022/05/05 13:28:31;;;;;;;3.78;3.47;;;19.80;99.90;;;;;;5095567;28;20186;-76
2022/05/05 13:30:58;;;;;;;4.82;3.83;;;19.80;99.90;;;;;;5095492;28;20213;-75
2022/05/05 13:33:25;;;;;;;3.72;3.42;;;19.80;99.90;;;;;;5093674;28;20245;-74
2022/05/05 13:35:52;;;;;;;3.58;3.28;;;19.70;99.90;;;;;;5097213;28;20281;-75
2022/05/05 13:38:20;;;;;;;4.15;3.70;;;19.70;99.90;;;;;;5095449;28;20483;-74
2022/05/05 13:40:48;;;;;;;4.75;2.83;;;19.60;99.90;;;;;;5092057;28;20227;-74
2022/05/05 13:43:15;;;;;;;2.75;2.55;;;19.70;99.90;;;;;;5098032;28;20201;-75
2022/05/05 13:45:42;;;;;;;3.60;3.03;;;19.90;99.90;;;;;;5093221;28;20229;-75
2022/05/05 13:48:10;;;;;;;2.92;2.72;;;20.10;99.90;;;;;;5098755;28;20254;-77
2022/05/05 13:50:37;;;;;;;2.78;2.58;;;20.20;99.90;;;;;;5084544;28;20240;-76
2022/05/05 13:53:04;;;;;;;2.50;2.30;;;20.40;99.90;;;;;;5085074;28;20198;-75
2022/05/05 13:55:33;;;;;;;3.00;2.80;;;20.50;99.90;;;;;;5081243;28;20580;-73
2022/05/05 13:58:02;;;;;;;3.08;2.80;;;20.60;99.90;;;;;;5083298;28;20608;-73
2022/05/05 14:00:30;;;;;;;3.00;2.80;;;20.70;99.90;;;;;;5077077;28;20521;-74
2022/05/05 14:02:58;;;;;;;3.20;3.00;;;20.70;99.90;;;;;;5082857;28;20198;-76
2022/05/05 14:05:25;;;;;;;3.45;3.17;;;20.60;99.90;;;;;;5079610;28;20317;-75
2022/05/05 14:13:23;;;;;;;4.05;3.65;;;20.30;99.90;;;;;;5082247;28;20221;-75
2022/05/05 14:15:50;;;;;;;3.50;3.20;;;20.40;99.90;;;;;;5082900;28;20651;-73
2022/05/05 14:18:17;;;;;;;4.55;3.95;;;20.20;99.90;;;;;;5078120;28;20216;-76
2022/05/05 14:20:45;;;;;;;3.50;3.20;;;20.00;99.90;;;;;;5080426;28;20271;-76